Coyote Springs, NV (89037)

4:06 PM PDT on August 23, 2019 (GMT -0700)
Warm Springs Natural Area | | Change Station

Elev 1778 ft 36.72 °N, 114.72 °W | Updated 2 minutes ago

Clear
Clear
101.6 °F
Feels Like 98 °F
N
6
Wind Variable Wind from South
Gusts 8.0 mph

Today
High -- | Low -- °F
--% Chance of Precip.
Yesterday
High -- | Low -- °F
Precip. -- in
Pressure 29.65 in
Visibility 10.0 miles
Clouds Clear
Heat Index 98 °F
Dew Point 47 °F
Humidity 16%
Rainfall 0.00 in
Snow Depth Not available.
6:03 AM 7:20 PM
Waning Gibbous, 47% visible
METAR KLSV 232258Z AUTO 07016G21KT 10SM CLR 39/09 A2973 RMK AO2 SLP040 T03870092 $
Pressure 29.65 in
Visibility 10.0 miles
Clouds Clear
Heat Index 98 °F
Dew Point 47 °F
Humidity 16%
Rainfall 0.00 in
Snow Depth Not available.
6:03 AM 7:20 PM
Waning Gibbous, 47% visible
METAR KLSV 232258Z AUTO 07016G21KT 10SM CLR 39/09 A2973 RMK AO2 SLP040 T03870092 $

Get Severe Weather Alerts

Thanks for signing up!

Be on the lookout for a verification email in your inbox.

You'll start receiving the daily forecast at 6 AM.

×

10-Day Weather Forecast

Almanac

Astronomy

Aug. 23, 2019 Rise Set
Actual Time
Civil Twilight
Nautical Twilight
Astronomical Twilight
Moon
Length of Visible Light
Length of Day
Tomorrow will be .
, % of the Moon is Illuminated

Today's Extremes

State Highs State Lows

Community

WunderPhotos

Category 6

Welcome to Category 6. This is the collective home for Weather Underground's featured writeups by Dr. Jeff Masters (right), Bob Henson (left), Chris Burt, and other regular contributors.

Nearby

Air Quality

  Air Quality AQ Index Pollutant
Not available.

Snow Depth

Station Depth Elevation

Earthquake Activity

City Distance Mag. Time & Date
Minimum magnitude displayed is 2.5.

Coastal Water Temperatures

Place Temperature

Stations

Nearby Weather Stations

Station Location Temp. Windchill Dew Point Humidity Wind Precip. Elev Updated Type
                   

Watches & Warnings

There are currently no watches in effect.